createdAt,value
2023-02-06T00:00:14.688Z,5.03
2023-02-06T00:04:18.659Z,5.80
2023-02-06T00:08:26.153Z,7.72
2023-02-06T00:12:34.930Z,4.55
2023-02-06T00:16:40.990Z,4.60
2023-02-06T00:20:43.930Z,3.38
2023-02-06T00:24:51.102Z,5.85
2023-02-06T00:28:54.738Z,4.53
2023-02-06T00:33:02.340Z,4.07
2023-02-06T00:37:05.451Z,5.28
2023-02-06T00:41:17.827Z,5.70
2023-02-06T00:45:24.453Z,6.63
2023-02-06T00:49:30.902Z,4.15
2023-02-06T00:53:37.763Z,3.10
2023-02-06T00:57:48.552Z,3.88
2023-02-06T01:01:56.288Z,1.92
2023-02-06T01:06:02.310Z,3.53
2023-02-06T01:10:06.307Z,3.22
2023-02-06T01:14:15.228Z,3.83
2023-02-06T01:18:21.929Z,3.20
2023-02-06T01:22:48.570Z,2.83
2023-02-06T01:27:06.318Z,3.33
2023-02-06T01:31:14.114Z,3.05
2023-02-06T01:35:18.277Z,3.85
2023-02-06T01:39:25.821Z,2.03
2023-02-06T01:43:34.730Z,2.53
2023-02-06T01:47:38.677Z,2.58
2023-02-06T01:51:42.494Z,3.22
2023-02-06T01:55:52.420Z,3.72
2023-02-06T01:59:59.500Z,2.38
2023-02-06T02:04:06.808Z,1.42
2023-02-06T02:08:25.064Z,5.22
2023-02-06T02:12:36.782Z,2.22
2023-02-06T02:16:48.678Z,3.15
2023-02-06T02:21:43.261Z,4.20
2023-02-06T02:26:40.543Z,4.68
2023-02-06T02:31:08.491Z,6.72
2023-02-06T02:35:21.604Z,4.97
2023-02-06T02:39:34.362Z,5.70
2023-02-06T02:43:46.668Z,5.07
2023-02-06T02:47:56.565Z,2.80
2023-02-06T02:52:08.928Z,3.50
2023-02-06T02:56:18.189Z,4.93
2023-02-06T03:00:23.364Z,7.35
2023-02-06T03:04:29.567Z,3.38
2023-02-06T03:08:45.956Z,2.75
2023-02-06T03:12:54.178Z,4.38
2023-02-06T03:17:00.817Z,2.33
2023-02-06T03:21:05.437Z,6.70
2023-02-06T03:25:14.327Z,3.15
2023-02-06T03:29:18.259Z,4.18
2023-02-06T03:33:23.666Z,3.22
2023-02-06T03:37:27.213Z,2.67
2023-02-06T03:41:38.740Z,5.30
2023-02-06T03:45:43.493Z,3.58
2023-02-06T03:49:47.537Z,1.70
2023-02-06T03:53:51.660Z,2.42
2023-02-06T03:58:03.556Z,4.72
2023-02-06T04:02:07.154Z,5.95
2023-02-06T04:06:10.327Z,7.53
2023-02-06T04:10:20.578Z,6.40
2023-02-06T04:14:24.936Z,6.78
2023-02-06T04:18:28.772Z,5.10
2023-02-06T04:22:38.299Z,6.70
2023-02-06T04:26:44.725Z,7.07
2023-02-06T04:30:50.165Z,9.13
2023-02-06T04:34:53.245Z,4.40
2023-02-06T04:38:56.763Z,4.78
2023-02-06T04:43:00.162Z,5.60
2023-02-06T04:47:04.560Z,7.78
2023-02-06T04:51:08.119Z,4.68
2023-02-06T04:55:11.365Z,2.30
2023-02-06T04:59:14.552Z,5.13
2023-02-06T05:03:26.138Z,6.18
2023-02-06T05:07:29.150Z,2.65
2023-02-06T05:11:32.749Z,2.83
2023-02-06T05:15:38.130Z,5.50
2023-02-06T05:19:45.893Z,5.07
2023-02-06T05:23:48.703Z,6.95
2023-02-06T05:27:58.755Z,11.52
2023-02-06T05:32:05.171Z,8.10
2023-02-06T05:36:10.579Z,9.40
2023-02-06T05:40:14.765Z,10.38
2023-02-06T05:44:21.219Z,6.88
2023-02-06T05:48:35.064Z,5.85
2023-02-06T05:52:40.609Z,6.50
2023-02-06T05:56:44.620Z,9.50
2023-02-06T06:00:50.988Z,9.43
2023-02-06T06:04:55.243Z,11.45
2023-02-06T06:09:02.561Z,11.90
2023-02-06T06:13:09.803Z,7.85
2023-02-06T06:17:13.336Z,11.65
2023-02-06T06:21:18.882Z,7.50
2023-02-06T06:25:23.491Z,7.88
2023-02-06T06:29:26.598Z,18.35
2023-02-06T06:33:29.699Z,11.65
2023-02-06T06:37:32.561Z,20.10
2023-02-06T06:41:37.227Z,14.48
2023-02-06T06:45:40.273Z,17.08
2023-02-06T06:49:43.642Z,11.65
2023-02-06T06:53:58.596Z,13.10
2023-02-06T06:58:03.898Z,14.52
2023-02-06T07:02:07.751Z,12.25
2023-02-06T07:06:20.640Z,9.90
2023-02-06T07:10:23.760Z,9.85
2023-02-06T07:14:28.879Z,14.82
2023-02-06T07:18:38.750Z,16.33
2023-02-06T07:22:47.754Z,15.38
2023-02-06T07:26:59.181Z,12.90
2023-02-06T07:31:16.297Z,6.53
2023-02-06T07:35:28.270Z,11.82
2023-02-06T07:39:33.939Z,11.10
2023-02-06T07:43:37.401Z,12.15
2023-02-06T07:47:42.884Z,11.85
2023-02-06T07:51:49.884Z,11.20
2023-02-06T07:55:56.134Z,11.27
2023-02-06T08:00:00.129Z,9.65
2023-02-06T08:04:05.122Z,7.72
2023-02-06T08:08:09.998Z,8.35
2023-02-06T08:12:13.596Z,10.73
2023-02-06T08:16:18.734Z,8.88
2023-02-06T08:20:26.292Z,7.00
2023-02-06T08:24:30.475Z,6.25
2023-02-06T08:28:39.454Z,5.65
2023-02-06T08:32:43.686Z,6.35
2023-02-06T08:36:49.242Z,8.98
2023-02-06T08:40:53.178Z,5.63
2023-02-06T08:44:57.098Z,5.68
2023-02-06T08:49:04.428Z,5.22
2023-02-06T08:53:18.693Z,6.45
2023-02-06T08:57:26.816Z,5.43
2023-02-06T09:01:32.808Z,3.38
2023-02-06T09:05:37.668Z,3.90
2023-02-06T09:09:42.568Z,5.20
2023-02-06T09:13:49.614Z,5.13
2023-02-06T09:18:01.107Z,5.47
2023-02-06T09:22:06.918Z,5.80
2023-02-06T09:26:17.553Z,4.50
2023-02-06T09:30:21.226Z,6.50
2023-02-06T09:34:26.254Z,5.70
2023-02-06T09:38:42.757Z,5.85
2023-02-06T09:47:01.570Z,4.70
2023-02-06T09:51:23.935Z,6.40
2023-02-06T09:55:36.027Z,5.55
2023-02-06T09:59:45.195Z,7.15
2023-02-06T10:04:20.728Z,6.50
2023-02-06T10:08:27.846Z,6.43
2023-02-06T10:12:37.605Z,7.78
2023-02-06T10:16:48.872Z,6.70
2023-02-06T10:20:54.864Z,6.97
2023-02-06T10:25:13.852Z,6.88
2023-02-06T10:29:21.318Z,6.32
2023-02-06T10:33:31.413Z,4.75
2023-02-06T10:37:56.075Z,5.95
2023-02-06T10:42:13.785Z,6.85
2023-02-06T10:46:34.582Z,4.82
2023-02-06T10:50:44.411Z,3.67
2023-02-06T10:54:58.832Z,3.95
2023-02-06T10:59:23.786Z,7.25
2023-02-06T11:03:39.748Z,3.70
2023-02-06T11:07:51.276Z,5.85
2023-02-06T11:11:56.014Z,3.25
2023-02-06T11:16:02.910Z,3.13
2023-02-06T11:20:20.531Z,3.72
2023-02-06T11:24:38.885Z,2.85
2023-02-06T11:28:57.251Z,4.40
2023-02-06T11:33:07.429Z,2.92
2023-02-06T11:37:32.550Z,3.40
2023-02-06T11:42:05.859Z,4.15
2023-02-06T11:46:16.393Z,6.07
2023-02-06T11:50:29.695Z,3.75
2023-02-06T11:54:35.718Z,2.53
2023-02-06T11:58:40.868Z,3.45
2023-02-06T12:03:00.767Z,3.00
2023-02-06T12:07:08.696Z,4.10
2023-02-06T12:11:40.079Z,2.13
2023-02-06T12:15:54.353Z,4.47
2023-02-06T12:20:04.039Z,3.92
2023-02-06T12:24:21.416Z,2.47
2023-02-06T12:28:31.252Z,4.13
2023-02-06T12:32:43.758Z,1.88
2023-02-06T12:37:12.482Z,4.60
2023-02-06T12:41:38.569Z,5.43
2023-02-06T12:45:48.342Z,4.32
2023-02-06T12:50:00.396Z,2.78
2023-02-06T12:54:20.765Z,4.20
2023-02-06T12:58:32.541Z,4.05
2023-02-06T13:02:55.878Z,2.40
2023-02-06T13:07:08.732Z,2.42
2023-02-06T13:11:29.084Z,3.17
2023-02-06T13:15:37.010Z,2.45
2023-02-06T13:20:02.523Z,3.67
2023-02-06T13:24:21.322Z,1.85
2023-02-06T13:29:10.368Z,2.65
2023-02-06T13:33:20.088Z,6.50
2023-02-06T13:37:47.317Z,2.53
2023-02-06T13:41:56.746Z,3.72
2023-02-06T13:46:07.411Z,2.63
2023-02-06T13:50:37.720Z,4.75
2023-02-06T13:55:05.250Z,1.08
2023-02-06T13:59:18.935Z,3.60
2023-02-06T14:03:28.433Z,3.22
2023-02-06T14:08:02.382Z,3.53
2023-02-06T14:12:32.105Z,4.10
2023-02-06T14:16:44.752Z,3.33
2023-02-06T14:20:56.876Z,2.92
2023-02-06T14:25:10.862Z,4.65
2023-02-06T14:29:24.884Z,2.63
2023-02-06T14:34:18.700Z,3.22
2023-02-06T14:38:48.825Z,3.15
2023-02-06T14:43:06.681Z,3.92
2023-02-06T14:47:19.241Z,10.73
2023-02-06T14:51:31.267Z,2.33
2023-02-06T14:55:39.283Z,4.28
2023-02-06T14:59:54.279Z,3.33
2023-02-06T15:04:11.630Z,4.32
2023-02-06T15:08:25.641Z,2.88
2023-02-06T15:12:34.117Z,2.70
2023-02-06T15:16:52.257Z,3.80
2023-02-06T15:20:59.850Z,5.82
2023-02-06T15:25:16.501Z,5.63
2023-02-06T15:29:30.973Z,4.25
2023-02-06T15:33:35.087Z,4.95
2023-02-06T15:37:38.968Z,4.93
2023-02-06T15:41:47.571Z,2.50
2023-02-06T15:45:56.344Z,4.13
2023-02-06T15:50:02.573Z,4.30
2023-02-06T15:54:17.852Z,3.97
2023-02-06T15:58:26.363Z,3.25
2023-02-06T16:02:45.345Z,4.93
2023-02-06T16:07:01.345Z,3.75
2023-02-06T16:11:35.574Z,7.30
2023-02-06T16:15:42.069Z,6.60
2023-02-06T16:20:05.337Z,6.90
2023-02-06T16:24:21.154Z,6.13
2023-02-06T16:28:41.636Z,3.80
2023-02-06T16:33:05.294Z,6.15
2023-02-06T16:37:14.395Z,4.72
2023-02-06T16:41:35.529Z,6.53
2023-02-06T16:45:53.926Z,6.90
2023-02-06T16:49:59.880Z,3.63
2023-02-06T16:54:03.857Z,7.18
2023-02-06T16:58:08.163Z,3.60
2023-02-06T17:06:20.818Z,7.43
2023-02-06T17:10:28.578Z,7.38
2023-02-06T17:14:32.709Z,10.20
2023-02-06T17:18:40.515Z,7.63
2023-02-06T17:22:45.360Z,8.57
2023-02-06T17:27:14.352Z,11.10
2023-02-06T17:31:19.013Z,6.32
2023-02-06T17:35:23.186Z,8.70
2023-02-06T17:39:33.877Z,8.48
2023-02-06T17:43:37.878Z,9.50
2023-02-06T17:47:44.577Z,10.90
2023-02-06T17:51:59.024Z,12.07
2023-02-06T17:56:10.579Z,10.43
2023-02-06T18:00:17.841Z,11.95
2023-02-06T18:04:21.682Z,13.07
2023-02-06T18:08:25.366Z,11.98
2023-02-06T18:12:30.371Z,17.05
2023-02-06T18:16:38.215Z,11.70
2023-02-06T18:20:43.727Z,9.70
2023-02-06T18:24:48.191Z,11.90
2023-02-06T18:28:53.433Z,19.15
2023-02-06T18:33:01.972Z,11.60
2023-02-06T18:37:07.730Z,7.07
2023-02-06T18:41:31.746Z,10.63
2023-02-06T18:45:39.392Z,9.75
2023-02-06T18:49:43.330Z,11.63
2023-02-06T18:53:46.622Z,17.35
2023-02-06T18:57:51.821Z,9.75
2023-02-06T19:01:57.017Z,17.00
2023-02-06T19:06:00.567Z,13.35
2023-02-06T19:10:09.821Z,11.13
2023-02-06T19:14:16.961Z,14.95
2023-02-06T19:18:38.905Z,12.25
2023-02-06T19:22:52.220Z,11.65
2023-02-06T19:26:56.585Z,18.00
2023-02-06T19:31:01.870Z,19.67
2023-02-06T19:35:07.641Z,13.43
2023-02-06T19:39:13.996Z,13.15
2023-02-06T19:43:17.863Z,13.98
2023-02-06T19:47:21.933Z,15.90
2023-02-06T19:51:29.557Z,12.18
2023-02-06T19:55:33.431Z,16.27
2023-02-06T19:59:37.295Z,19.10
2023-02-06T20:03:41.216Z,15.50
2023-02-06T20:07:46.843Z,15.52
2023-02-06T20:11:50.572Z,21.77
2023-02-06T20:15:54.255Z,20.08
2023-02-06T20:20:10.601Z,15.43
2023-02-06T20:24:18.704Z,21.92
2023-02-06T20:28:22.182Z,17.27
2023-02-06T20:32:25.960Z,16.98
2023-02-06T20:36:31.126Z,18.95
2023-02-06T20:40:41.525Z,18.95
2023-02-06T20:44:45.156Z,17.45
2023-02-06T20:48:54.534Z,16.58
2023-02-06T20:52:58.761Z,10.40
2023-02-06T20:57:03.918Z,13.88
2023-02-06T21:01:14.041Z,20.27
2023-02-06T21:05:18.678Z,19.45
2023-02-06T21:09:22.510Z,23.67
2023-02-06T21:13:27.565Z,19.70
2023-02-06T21:17:34.977Z,17.02
2023-02-06T21:21:39.096Z,12.68
2023-02-06T21:25:42.955Z,20.63
2023-02-06T21:29:48.312Z,19.67
2023-02-06T21:33:58.609Z,17.63
2023-02-06T21:38:04.581Z,22.63
2023-02-06T21:42:11.959Z,18.67
2023-02-06T21:46:17.045Z,14.90
2023-02-06T21:50:20.883Z,13.52
2023-02-06T21:54:29.906Z,15.73
2023-02-06T21:58:34.607Z,12.18
2023-02-06T22:02:40.113Z,17.02
2023-02-06T22:06:43.873Z,14.25
2023-02-06T22:10:48.265Z,15.48
2023-02-06T22:14:52.014Z,12.15
2023-02-06T22:19:06.308Z,9.27
2023-02-06T22:23:10.501Z,13.20
2023-02-06T22:27:14.426Z,10.63
2023-02-06T22:31:19.788Z,8.90
2023-02-06T22:35:30.516Z,8.73
2023-02-06T22:39:38.307Z,9.98
2023-02-06T22:43:44.684Z,8.32
2023-02-06T22:47:48.749Z,5.60
2023-02-06T22:52:05.018Z,6.55
2023-02-06T22:56:35.054Z,6.05
2023-02-06T23:00:38.962Z,6.72
2023-02-06T23:04:42.622Z,5.53
2023-02-06T23:08:48.180Z,9.88
2023-02-06T23:12:55.603Z,9.32
2023-02-06T23:17:00.130Z,6.60
2023-02-06T23:25:17.072Z,8.18
2023-02-06T23:29:23.949Z,7.57
2023-02-06T23:33:28.458Z,8.38
2023-02-06T23:37:35.740Z,8.20
2023-02-06T23:41:44.425Z,7.07
2023-02-06T23:45:51.734Z,5.05
2023-02-06T23:49:55.611Z,7.60
2023-02-06T23:54:03.097Z,7.30
